createdAt,value
2023-01-19T00:01:36.627Z,100.00
2023-01-19T00:04:04.868Z,100.00
2023-01-19T00:06:32.687Z,100.00
2023-01-19T00:09:00.692Z,100.00
2023-01-19T00:11:28.352Z,100.00
2023-01-19T00:13:56.047Z,100.00
2023-01-19T00:16:25.215Z,100.00
2023-01-19T00:18:53.790Z,100.00
2023-01-19T00:21:22.589Z,100.00
2023-01-19T00:23:52.540Z,100.00
2023-01-19T00:26:22.315Z,100.00
2023-01-19T00:28:50.967Z,100.00
2023-01-19T00:31:20.646Z,100.00
2023-01-19T00:33:52.639Z,100.00
2023-01-19T00:36:21.013Z,100.00
2023-01-19T00:38:48.717Z,100.00
2023-01-19T00:41:16.572Z,100.00
2023-01-19T00:43:43.631Z,100.00
2023-01-19T00:46:12.066Z,100.00
2023-01-19T00:48:39.880Z,100.00
2023-01-19T00:51:09.331Z,100.00
2023-01-19T00:53:37.046Z,100.00
2023-01-19T00:56:04.929Z,100.00
2023-01-19T00:58:32.715Z,100.00
2023-01-19T01:01:03.684Z,100.00
2023-01-19T01:03:31.746Z,100.00
2023-01-19T01:05:59.655Z,100.00
2023-01-19T01:08:29.095Z,100.00
2023-01-19T01:10:57.496Z,100.00
2023-01-19T01:13:27.951Z,100.00
2023-01-19T01:15:57.282Z,100.00
2023-01-19T01:18:25.699Z,100.00
2023-01-19T01:20:55.317Z,100.00
2023-01-19T01:23:24.185Z,100.00
2023-01-19T01:25:53.292Z,100.00
2023-01-19T01:28:21.061Z,100.00
2023-01-19T01:30:48.949Z,100.00
2023-01-19T01:33:40.925Z,100.00
2023-01-19T01:36:05.728Z,100.00
2023-01-19T01:38:33.736Z,100.00
2023-01-19T01:41:03.455Z,100.00
2023-01-19T01:43:44.993Z,100.00
2023-01-19T01:46:15.477Z,100.00
2023-01-19T01:48:47.415Z,100.00
2023-01-19T01:51:25.815Z,100.00
2023-01-19T01:54:02.533Z,100.00
2023-01-19T01:56:36.778Z,100.00
2023-01-19T01:59:08.643Z,100.00
2023-01-19T02:01:55.134Z,100.00
2023-01-19T02:04:24.334Z,100.00
2023-01-19T02:07:09.620Z,100.00
2023-01-19T02:09:56.014Z,100.00
2023-01-19T02:12:43.896Z,100.00
2023-01-19T02:15:17.014Z,100.00
2023-01-19T02:17:45.015Z,100.00
2023-01-19T02:20:14.226Z,100.00
2023-01-19T02:22:48.730Z,100.00
2023-01-19T02:25:19.927Z,100.00
2023-01-19T02:27:48.955Z,100.00
2023-01-19T02:30:18.556Z,100.00
2023-01-19T02:32:46.597Z,100.00
2023-01-19T02:35:14.551Z,100.00
2023-01-19T02:37:44.814Z,100.00
2023-01-19T02:40:15.925Z,100.00
2023-01-19T02:42:49.494Z,100.00
2023-01-19T02:45:23.388Z,100.00
2023-01-19T02:47:53.253Z,100.00
2023-01-19T02:50:49.370Z,100.00
2023-01-19T02:53:39.226Z,100.00
2023-01-19T02:56:35.944Z,100.00
2023-01-19T02:59:10.060Z,100.00
2023-01-19T03:01:48.592Z,100.00
2023-01-19T03:04:25.489Z,100.00
2023-01-19T03:06:57.733Z,100.00
2023-01-19T03:09:33.630Z,100.00
2023-01-19T03:12:10.599Z,100.00
2023-01-19T03:14:44.354Z,100.00
2023-01-19T03:17:16.021Z,100.00
2023-01-19T03:19:46.239Z,100.00
2023-01-19T03:22:22.596Z,100.00
2023-01-19T03:24:53.679Z,100.00
2023-01-19T03:27:26.468Z,100.00
2023-01-19T03:30:00.754Z,100.00
2023-01-19T03:32:32.937Z,100.00
2023-01-19T03:35:03.779Z,100.00
2023-01-19T03:37:32.850Z,100.00
2023-01-19T03:40:01.173Z,100.00
2023-01-19T03:42:29.735Z,100.00
2023-01-19T03:45:02.126Z,100.00
2023-01-19T03:47:30.305Z,100.00
2023-01-19T03:49:59.336Z,100.00
2023-01-19T03:52:32.553Z,100.00
2023-01-19T03:55:00.874Z,100.00
2023-01-19T03:57:28.643Z,100.00
2023-01-19T03:59:57.795Z,100.00
2023-01-19T04:02:25.920Z,100.00
2023-01-19T04:04:53.654Z,100.00
2023-01-19T04:07:21.471Z,100.00
2023-01-19T04:09:49.093Z,100.00
2023-01-19T04:12:16.778Z,100.00
2023-01-19T04:14:44.565Z,100.00
2023-01-19T04:17:14.326Z,100.00
2023-01-19T04:19:43.128Z,100.00
2023-01-19T04:22:11.270Z,100.00
2023-01-19T04:24:39.062Z,100.00
2023-01-19T04:27:06.923Z,100.00
2023-01-19T04:29:34.720Z,100.00
2023-01-19T04:32:02.553Z,100.00
2023-01-19T04:34:31.619Z,100.00
2023-01-19T04:36:59.366Z,100.00
2023-01-19T04:39:27.504Z,100.00
2023-01-19T04:41:57.322Z,100.00
2023-01-19T04:44:25.238Z,100.00
2023-01-19T04:46:52.969Z,100.00
2023-01-19T04:49:20.843Z,100.00
2023-01-19T04:51:49.834Z,100.00
2023-01-19T04:54:17.529Z,100.00
2023-01-19T04:56:45.438Z,100.00
2023-01-19T04:59:13.735Z,100.00
2023-01-19T05:01:41.461Z,100.00
2023-01-19T05:04:09.831Z,100.00
2023-01-19T05:06:37.520Z,100.00
2023-01-19T05:09:09.167Z,100.00
2023-01-19T05:11:37.141Z,100.00
2023-01-19T05:14:04.931Z,100.00
2023-01-19T05:16:32.628Z,100.00
2023-01-19T05:19:00.266Z,100.00
2023-01-19T05:21:28.218Z,100.00
2023-01-19T05:23:55.894Z,100.00
2023-01-19T05:26:24.909Z,100.00
2023-01-19T05:28:52.740Z,100.00
2023-01-19T05:31:20.538Z,100.00
2023-01-19T05:33:49.039Z,100.00
2023-01-19T05:36:17.000Z,100.00
2023-01-19T05:38:44.761Z,100.00
2023-01-19T05:41:12.472Z,100.00
2023-01-19T05:43:41.532Z,100.00
2023-01-19T05:46:09.771Z,100.00
2023-01-19T05:48:37.611Z,100.00
2023-01-19T05:51:06.003Z,100.00
2023-01-19T05:53:33.933Z,100.00
2023-01-19T05:56:02.500Z,100.00
2023-01-19T05:58:30.291Z,100.00
2023-01-19T06:01:05.134Z,100.00
2023-01-19T06:03:33.307Z,100.00
2023-01-19T06:06:01.796Z,100.00
2023-01-19T06:08:29.743Z,100.00
2023-01-19T06:10:57.493Z,100.00
2023-01-19T06:13:25.397Z,100.00
2023-01-19T06:15:59.750Z,100.00
2023-01-19T06:18:27.606Z,100.00
2023-01-19T06:20:58.668Z,100.00
2023-01-19T06:23:26.621Z,100.00
2023-01-19T06:25:54.303Z,100.00
2023-01-19T06:28:22.409Z,100.00
2023-01-19T06:30:50.861Z,100.00
2023-01-19T06:33:20.954Z,100.00
2023-01-19T06:35:50.528Z,100.00
2023-01-19T06:38:19.483Z,100.00
2023-01-19T06:40:47.698Z,100.00
2023-01-19T06:43:15.510Z,100.00
2023-01-19T06:45:45.149Z,100.00
2023-01-19T06:48:13.007Z,100.00
2023-01-19T06:50:42.078Z,100.00
2023-01-19T06:53:10.134Z,100.00
2023-01-19T06:55:39.207Z,100.00
2023-01-19T06:58:07.879Z,100.00
2023-01-19T07:00:36.114Z,100.00
2023-01-19T07:03:05.109Z,100.00
2023-01-19T07:05:33.243Z,100.00
2023-01-19T07:08:03.244Z,100.00
2023-01-19T07:11:21.585Z,100.00
2023-01-19T07:13:19.048Z,100.00
2023-01-19T07:15:47.152Z,100.00
2023-01-19T07:18:15.144Z,100.00
2023-01-19T07:20:44.316Z,100.00
2023-01-19T07:23:13.515Z,100.00
2023-01-19T07:25:41.159Z,100.00
2023-01-19T07:28:09.733Z,100.00
2023-01-19T07:30:37.476Z,100.00
2023-01-19T07:33:05.291Z,100.00
2023-01-19T07:35:33.089Z,100.00
2023-01-19T07:38:00.996Z,100.00
2023-01-19T07:40:30.128Z,100.00
2023-01-19T07:42:58.062Z,100.00
2023-01-19T07:45:28.008Z,100.00
2023-01-19T07:47:58.679Z,100.00
2023-01-19T07:50:27.844Z,100.00
2023-01-19T07:52:55.899Z,100.00
2023-01-19T07:55:25.125Z,100.00
2023-01-19T07:57:54.439Z,100.00
2023-01-19T08:00:25.399Z,100.00
2023-01-19T08:02:54.030Z,100.00
2023-01-19T08:05:23.093Z,100.00
2023-01-19T08:07:53.241Z,100.00
2023-01-19T08:10:25.666Z,100.00
2023-01-19T08:12:54.708Z,100.00
2023-01-19T08:15:24.953Z,100.00
2023-01-19T08:17:57.122Z,100.00
2023-01-19T08:20:27.206Z,100.00
2023-01-19T08:23:00.007Z,100.00
2023-01-19T08:25:33.078Z,100.00
2023-01-19T08:28:02.496Z,100.00
2023-01-19T08:30:30.423Z,100.00
2023-01-19T08:33:04.231Z,100.00
2023-01-19T08:35:32.253Z,100.00
2023-01-19T08:38:01.590Z,100.00
2023-01-19T08:40:29.750Z,100.00
2023-01-19T08:43:03.752Z,100.00
2023-01-19T08:45:33.594Z,100.00
2023-01-19T08:48:02.153Z,100.00
2023-01-19T08:50:31.800Z,100.00
2023-01-19T08:53:01.148Z,100.00
2023-01-19T08:55:30.577Z,100.00
2023-01-19T08:58:00.072Z,100.00
2023-01-19T09:00:31.772Z,100.00
2023-01-19T09:03:02.396Z,100.00
2023-01-19T09:05:31.977Z,100.00
2023-01-19T09:08:00.077Z,100.00
2023-01-19T09:10:28.256Z,100.00
2023-01-19T09:12:55.906Z,100.00
2023-01-19T09:15:24.112Z,100.00
2023-01-19T09:17:53.525Z,100.00
2023-01-19T09:20:23.484Z,100.00
2023-01-19T09:22:51.282Z,100.00
2023-01-19T09:25:19.238Z,100.00
2023-01-19T09:27:47.052Z,100.00
2023-01-19T09:30:17.043Z,100.00
2023-01-19T09:32:45.424Z,100.00
2023-01-19T09:35:13.584Z,100.00
2023-01-19T09:37:47.148Z,100.00
2023-01-19T09:40:17.329Z,100.00
2023-01-19T09:42:48.333Z,100.00
2023-01-19T09:45:20.432Z,100.00
2023-01-19T09:47:50.302Z,100.00
2023-01-19T09:50:25.294Z,100.00
2023-01-19T09:53:01.309Z,100.00
2023-01-19T09:55:30.605Z,100.00
2023-01-19T09:57:58.768Z,100.00
2023-01-19T10:00:28.940Z,100.00
2023-01-19T10:03:01.164Z,100.00
2023-01-19T10:05:32.838Z,100.00
2023-01-19T10:08:16.927Z,100.00
2023-01-19T10:10:49.567Z,100.00
2023-01-19T10:13:31.775Z,100.00
2023-01-19T10:16:11.117Z,100.00
2023-01-19T10:18:47.479Z,100.00
2023-01-19T10:21:22.786Z,100.00
2023-01-19T10:23:55.165Z,100.00
2023-01-19T10:26:25.392Z,100.00
2023-01-19T10:28:58.481Z,100.00
2023-01-19T10:31:26.718Z,100.00
2023-01-19T10:33:55.174Z,100.00
2023-01-19T10:36:29.054Z,100.00
2023-01-19T10:38:59.329Z,100.00
2023-01-19T10:41:32.373Z,100.00
2023-01-19T10:44:02.283Z,100.00
2023-01-19T10:46:36.191Z,100.00
2023-01-19T10:49:04.777Z,100.00
2023-01-19T10:51:34.750Z,100.00
2023-01-19T10:54:05.550Z,98.77
2023-01-19T10:56:36.547Z,99.79
2023-01-19T10:59:06.905Z,99.34
2023-01-19T11:01:37.955Z,99.32
2023-01-19T11:04:22.844Z,99.09
2023-01-19T11:06:50.835Z,100.00
2023-01-19T11:09:21.943Z,100.00
2023-01-19T11:11:51.833Z,100.00
2023-01-19T11:14:22.013Z,100.00
2023-01-19T11:16:52.966Z,100.00
2023-01-19T11:19:32.909Z,99.05
2023-01-19T11:22:21.566Z,99.70
2023-01-19T11:24:50.906Z,100.00
2023-01-19T11:27:20.753Z,100.00
2023-01-19T11:29:51.201Z,98.64
2023-01-19T11:32:23.061Z,98.79
2023-01-19T11:34:51.236Z,99.62
2023-01-19T11:37:31.333Z,100.00
2023-01-19T11:40:02.875Z,100.00
2023-01-19T11:42:34.676Z,100.00
2023-01-19T11:45:07.940Z,99.72
2023-01-19T11:47:42.281Z,98.90
2023-01-19T11:50:22.177Z,96.93
2023-01-19T11:52:55.349Z,96.21
2023-01-19T11:55:32.211Z,95.18
2023-01-19T11:58:00.927Z,92.97
2023-01-19T12:00:36.724Z,92.83
2023-01-19T12:03:14.201Z,93.43
2023-01-19T12:05:48.083Z,93.76
2023-01-19T12:08:21.770Z,93.15
2023-01-19T12:10:53.800Z,93.69
2023-01-19T12:13:24.005Z,92.56
2023-01-19T12:15:57.772Z,93.08
2023-01-19T12:18:29.302Z,91.94
2023-01-19T12:20:58.686Z,92.84
2023-01-19T12:23:37.468Z,92.64
2023-01-19T12:26:23.366Z,94.26
2023-01-19T12:28:53.399Z,94.76
2023-01-19T12:31:23.587Z,92.61
2023-01-19T12:33:51.778Z,92.43
2023-01-19T12:36:39.390Z,92.30
2023-01-19T12:39:18.042Z,91.39
2023-01-19T12:41:48.143Z,91.62
2023-01-19T12:44:34.861Z,92.46
2023-01-19T12:47:21.049Z,91.97
2023-01-19T12:49:51.995Z,90.31
2023-01-19T12:52:33.357Z,89.53
2023-01-19T12:55:05.810Z,90.27
2023-01-19T12:57:40.277Z,89.63
2023-01-19T13:00:28.839Z,89.60
2023-01-19T13:02:57.724Z,89.64
2023-01-19T13:05:59.083Z,90.61
2023-01-19T13:08:31.190Z,90.33
2023-01-19T13:11:26.380Z,90.65
2023-01-19T13:14:33.718Z,90.32
2023-01-19T13:17:34.739Z,90.86
2023-01-19T13:20:25.878Z,91.93
2023-01-19T13:23:19.255Z,92.51
2023-01-19T13:25:53.839Z,90.69
2023-01-19T13:28:29.294Z,90.62
2023-01-19T13:31:00.338Z,90.45
2023-01-19T13:33:37.649Z,90.53
2023-01-19T13:36:20.590Z,90.31
2023-01-19T13:38:50.198Z,90.54
2023-01-19T13:41:22.650Z,90.56
2023-01-19T13:43:56.152Z,90.23
2023-01-19T13:46:26.326Z,89.63
2023-01-19T13:48:58.766Z,90.68
2023-01-19T13:51:27.035Z,91.90
2023-01-19T13:53:56.416Z,91.81
2023-01-19T13:56:27.707Z,90.93
2023-01-19T13:59:13.805Z,91.07
2023-01-19T14:01:44.514Z,90.07
2023-01-19T14:04:32.459Z,91.87
2023-01-19T14:07:03.504Z,91.83
2023-01-19T14:09:31.479Z,91.95
2023-01-19T14:12:09.033Z,90.72
2023-01-19T14:14:36.831Z,90.75
2023-01-19T14:17:04.812Z,90.70
2023-01-19T14:19:52.745Z,90.65
2023-01-19T14:22:43.578Z,91.57
2023-01-19T14:25:28.676Z,92.14
2023-01-19T14:28:30.171Z,91.05
2023-01-19T14:31:00.285Z,91.28
2023-01-19T14:33:41.982Z,92.17
2023-01-19T14:36:27.672Z,90.64
2023-01-19T14:38:59.037Z,91.61
2023-01-19T14:41:38.118Z,93.19
2023-01-19T14:44:10.556Z,93.59
2023-01-19T14:46:39.294Z,94.48
2023-01-19T14:49:08.019Z,94.90
2023-01-19T14:51:37.232Z,95.54
2023-01-19T14:54:05.631Z,94.30
2023-01-19T14:56:33.990Z,95.09
2023-01-19T14:59:02.909Z,94.90
2023-01-19T15:01:31.378Z,94.71
2023-01-19T15:03:59.593Z,95.56
2023-01-19T15:06:27.690Z,95.73
2023-01-19T15:08:57.147Z,96.30
2023-01-19T15:11:28.429Z,97.31
2023-01-19T15:13:56.758Z,98.29
2023-01-19T15:16:26.165Z,97.05
2023-01-19T15:18:54.538Z,98.09
2023-01-19T15:21:26.423Z,99.43
2023-01-19T15:23:54.916Z,100.00
2023-01-19T15:26:27.639Z,100.00
2023-01-19T15:28:57.398Z,100.00
2023-01-19T15:31:27.615Z,100.00
2023-01-19T15:33:55.848Z,100.00
2023-01-19T15:36:25.456Z,100.00
2023-01-19T15:38:53.341Z,100.00
2023-01-19T15:41:26.894Z,100.00
2023-01-19T15:43:54.924Z,100.00
2023-01-19T15:46:25.189Z,100.00
2023-01-19T15:48:54.068Z,100.00
2023-01-19T15:51:25.072Z,100.00
2023-01-19T15:53:53.819Z,100.00
2023-01-19T15:56:25.948Z,100.00
2023-01-19T15:58:54.831Z,100.00
2023-01-19T16:01:24.296Z,100.00
2023-01-19T16:03:52.660Z,100.00
2023-01-19T16:06:20.382Z,100.00
2023-01-19T16:08:48.680Z,100.00
2023-01-19T16:11:18.511Z,100.00
2023-01-19T16:13:48.695Z,100.00
2023-01-19T16:16:18.334Z,100.00
2023-01-19T16:18:46.919Z,100.00
2023-01-19T16:21:14.928Z,100.00
2023-01-19T16:23:42.901Z,100.00
2023-01-19T16:26:25.775Z,100.00
2023-01-19T16:28:57.054Z,100.00
2023-01-19T16:31:24.978Z,100.00
2023-01-19T16:33:53.008Z,100.00
2023-01-19T16:36:23.821Z,100.00
2023-01-19T16:38:52.042Z,100.00
2023-01-19T16:41:20.535Z,100.00
2023-01-19T16:43:52.933Z,100.00
2023-01-19T16:46:24.423Z,100.00
2023-01-19T16:48:52.962Z,100.00
2023-01-19T16:51:22.119Z,100.00
2023-01-19T16:53:50.924Z,100.00
2023-01-19T16:56:18.801Z,100.00
2023-01-19T16:58:46.782Z,100.00
2023-01-19T17:01:19.789Z,100.00
2023-01-19T17:03:49.585Z,100.00
2023-01-19T17:06:20.081Z,100.00
2023-01-19T17:08:48.539Z,100.00
2023-01-19T17:11:20.615Z,100.00
2023-01-19T17:13:50.226Z,100.00
2023-01-19T17:16:17.959Z,100.00
2023-01-19T17:18:46.081Z,100.00
2023-01-19T17:21:17.771Z,100.00
2023-01-19T17:23:47.318Z,100.00
2023-01-19T17:26:15.504Z,100.00
2023-01-19T17:28:43.632Z,100.00
2023-01-19T17:31:13.529Z,100.00
2023-01-19T17:33:41.659Z,100.00
2023-01-19T17:36:12.374Z,100.00
2023-01-19T17:38:42.017Z,100.00
2023-01-19T17:41:14.748Z,100.00
2023-01-19T17:43:42.599Z,100.00
2023-01-19T17:46:10.528Z,100.00
2023-01-19T17:48:38.816Z,100.00
2023-01-19T17:51:09.176Z,100.00
2023-01-19T17:53:38.497Z,100.00
2023-01-19T17:56:10.271Z,100.00
2023-01-19T17:58:38.099Z,100.00
2023-01-19T18:01:10.567Z,100.00
2023-01-19T18:03:38.460Z,100.00
2023-01-19T18:06:07.154Z,100.00
2023-01-19T18:08:36.303Z,100.00
2023-01-19T18:11:04.429Z,100.00
2023-01-19T18:13:34.277Z,100.00
2023-01-19T18:16:03.657Z,100.00
2023-01-19T18:18:32.076Z,100.00
2023-01-19T18:21:00.824Z,100.00
2023-01-19T18:23:29.384Z,100.00
2023-01-19T18:26:00.887Z,100.00
2023-01-19T18:28:29.220Z,100.00
2023-01-19T18:30:58.586Z,100.00
2023-01-19T18:33:27.451Z,100.00
2023-01-19T18:35:55.661Z,100.00
2023-01-19T18:38:23.878Z,100.00
2023-01-19T18:41:01.311Z,100.00
2023-01-19T18:43:29.342Z,100.00
2023-01-19T18:45:58.481Z,100.00
2023-01-19T18:48:26.450Z,100.00
2023-01-19T18:50:54.757Z,100.00
2023-01-19T18:53:22.835Z,100.00
2023-01-19T18:55:52.247Z,100.00
2023-01-19T18:58:20.215Z,100.00
2023-01-19T19:00:48.705Z,100.00
2023-01-19T19:03:18.666Z,100.00
2023-01-19T19:05:46.445Z,100.00
2023-01-19T19:08:14.306Z,100.00
2023-01-19T19:10:43.351Z,100.00
2023-01-19T19:13:14.485Z,100.00
2023-01-19T19:15:44.155Z,100.00
2023-01-19T19:18:14.053Z,100.00
2023-01-19T19:20:43.625Z,100.00
2023-01-19T19:23:12.443Z,100.00
2023-01-19T19:25:41.277Z,100.00
2023-01-19T19:28:09.923Z,100.00
2023-01-19T19:30:38.900Z,100.00
2023-01-19T19:33:08.081Z,100.00
2023-01-19T19:35:35.873Z,100.00
2023-01-19T19:38:05.386Z,100.00
2023-01-19T19:40:33.316Z,100.00
2023-01-19T19:43:01.048Z,100.00
2023-01-19T19:45:28.803Z,100.00
2023-01-19T19:47:57.592Z,100.00
2023-01-19T19:50:25.606Z,100.00
2023-01-19T19:52:53.451Z,100.00
2023-01-19T19:55:22.585Z,100.00
2023-01-19T19:57:50.286Z,100.00
2023-01-19T20:00:18.911Z,100.00
2023-01-19T20:02:46.798Z,100.00
2023-01-19T20:05:14.462Z,100.00
2023-01-19T20:07:47.000Z,100.00
2023-01-19T20:10:15.130Z,100.00
2023-01-19T20:12:44.284Z,100.00
2023-01-19T20:15:12.712Z,100.00
2023-01-19T20:17:40.379Z,100.00
2023-01-19T20:20:10.231Z,100.00
2023-01-19T20:22:38.408Z,100.00
2023-01-19T20:25:07.614Z,100.00
2023-01-19T20:27:35.825Z,100.00
2023-01-19T20:30:07.863Z,100.00
2023-01-19T20:32:36.277Z,100.00
2023-01-19T20:35:06.145Z,100.00
2023-01-19T20:37:34.673Z,100.00
2023-01-19T20:40:02.719Z,100.00
2023-01-19T20:42:30.551Z,100.00
2023-01-19T20:44:58.344Z,100.00
2023-01-19T20:47:27.462Z,100.00
2023-01-19T20:49:55.135Z,100.00
2023-01-19T20:52:23.455Z,100.00
2023-01-19T20:54:52.233Z,100.00
2023-01-19T20:57:20.032Z,100.00
2023-01-19T20:59:47.967Z,100.00
2023-01-19T21:02:16.680Z,100.00
2023-01-19T21:04:45.794Z,100.00
2023-01-19T21:07:13.598Z,100.00
2023-01-19T21:09:41.446Z,100.00
2023-01-19T21:12:09.707Z,100.00
2023-01-19T21:14:38.327Z,100.00
2023-01-19T21:17:06.022Z,100.00
2023-01-19T21:19:34.231Z,100.00
2023-01-19T21:22:04.099Z,100.00
2023-01-19T21:24:31.953Z,100.00
2023-01-19T21:26:59.870Z,100.00
2023-01-19T21:29:28.223Z,100.00
2023-01-19T21:31:56.781Z,100.00
2023-01-19T21:34:24.486Z,100.00
2023-01-19T21:36:52.254Z,100.00
2023-01-19T21:39:21.543Z,100.00
2023-01-19T21:41:49.352Z,100.00
2023-01-19T21:44:17.054Z,100.00
2023-01-19T21:46:44.828Z,100.00
2023-01-19T21:49:17.964Z,100.00
2023-01-19T21:51:47.898Z,100.00
2023-01-19T21:54:16.936Z,100.00
2023-01-19T21:56:46.171Z,100.00
2023-01-19T21:59:15.686Z,100.00
2023-01-19T22:01:45.536Z,100.00
2023-01-19T22:04:13.615Z,100.00
2023-01-19T22:06:41.390Z,100.00
2023-01-19T22:09:09.860Z,100.00
2023-01-19T22:11:37.565Z,100.00
2023-01-19T22:14:07.239Z,100.00
2023-01-19T22:16:35.400Z,100.00
2023-01-19T22:19:03.787Z,100.00
2023-01-19T22:21:34.088Z,100.00
2023-01-19T22:24:03.159Z,100.00
2023-01-19T22:26:32.206Z,100.00
2023-01-19T22:29:01.663Z,100.00
2023-01-19T22:31:31.610Z,100.00
2023-01-19T22:33:59.630Z,100.00
2023-01-19T22:36:29.545Z,100.00
2023-01-19T22:38:58.524Z,100.00
2023-01-19T22:41:30.416Z,100.00
2023-01-19T22:44:00.670Z,100.00
2023-01-19T22:46:32.005Z,100.00
2023-01-19T22:49:00.318Z,100.00
2023-01-19T22:51:29.518Z,100.00
2023-01-19T22:53:57.404Z,100.00
2023-01-19T22:56:27.426Z,100.00
2023-01-19T22:58:55.667Z,100.00
2023-01-19T23:01:24.898Z,100.00
2023-01-19T23:03:55.012Z,100.00
2023-01-19T23:06:24.651Z,100.00
2023-01-19T23:08:53.302Z,100.00
2023-01-19T23:11:22.986Z,100.00
2023-01-19T23:13:51.772Z,100.00
2023-01-19T23:16:19.715Z,100.00
2023-01-19T23:18:48.311Z,100.00
2023-01-19T23:21:19.327Z,100.00
2023-01-19T23:23:47.408Z,100.00
2023-01-19T23:26:17.133Z,100.00
2023-01-19T23:28:45.732Z,100.00
2023-01-19T23:31:15.258Z,100.00
2023-01-19T23:33:44.158Z,100.00
2023-01-19T23:36:12.512Z,100.00
2023-01-19T23:38:42.335Z,100.00
2023-01-19T23:41:10.638Z,100.00
2023-01-19T23:43:38.393Z,100.00
2023-01-19T23:46:07.892Z,100.00
2023-01-19T23:48:37.268Z,100.00
2023-01-19T23:51:08.143Z,100.00
2023-01-19T23:53:36.270Z,100.00
2023-01-19T23:56:11.847Z,100.00
2023-01-19T23:58:40.590Z,100.00
